createdAt,value
2022-11-27T00:01:24.795Z,4.90
2022-11-27T00:03:38.330Z,4.30
2022-11-27T00:06:01.839Z,4.70
2022-11-27T00:08:15.318Z,5.20
2022-11-27T00:10:28.749Z,7.70
2022-11-27T00:12:42.208Z,6.10
2022-11-27T00:14:56.586Z,4.80
2022-11-27T00:17:09.746Z,5.80
2022-11-27T00:19:23.361Z,5.80
2022-11-27T00:21:39.407Z,5.60
2022-11-27T00:23:52.953Z,4.60
2022-11-27T00:26:07.348Z,5.00
2022-11-27T00:28:20.991Z,8.90
2022-11-27T00:30:34.664Z,7.20
2022-11-27T00:32:48.068Z,7.10
2022-11-27T00:35:01.343Z,8.00
2022-11-27T00:37:16.025Z,9.10
2022-11-27T00:39:29.245Z,7.00
2022-11-27T00:41:42.577Z,5.70
2022-11-27T00:43:56.016Z,6.80
2022-11-27T00:46:09.792Z,6.40
2022-11-27T00:48:23.067Z,7.30
2022-11-27T00:50:36.725Z,6.10
2022-11-27T00:52:50.285Z,6.50
2022-11-27T00:55:03.549Z,6.50
2022-11-27T00:57:16.867Z,5.80
2022-11-27T00:59:30.670Z,6.50
2022-11-27T01:01:46.591Z,7.10
2022-11-27T01:04:01.584Z,3.90
2022-11-27T01:06:15.309Z,2.60
2022-11-27T01:08:28.715Z,3.90
2022-11-27T01:10:42.543Z,3.70
2022-11-27T01:12:56.896Z,3.40
2022-11-27T01:15:11.203Z,3.00
2022-11-27T01:17:24.477Z,4.50
2022-11-27T01:19:37.827Z,2.70
2022-11-27T01:21:51.464Z,2.70
2022-11-27T01:24:06.367Z,5.30
2022-11-27T01:26:20.967Z,2.80
2022-11-27T01:28:34.337Z,2.70
2022-11-27T01:30:47.769Z,2.90
2022-11-27T01:33:01.117Z,2.70
2022-11-27T01:35:15.559Z,3.30
2022-11-27T01:37:28.848Z,1.70
2022-11-27T01:39:42.208Z,1.60
2022-11-27T01:41:55.545Z,2.40
2022-11-27T01:44:22.033Z,4.50
2022-11-27T01:46:40.563Z,3.10
2022-11-27T01:48:54.523Z,2.50
2022-11-27T01:51:08.104Z,2.20
2022-11-27T01:53:23.363Z,3.20
2022-11-27T01:55:40.997Z,2.70
2022-11-27T01:57:58.435Z,2.80
2022-11-27T02:00:15.698Z,3.40
2022-11-27T02:02:29.883Z,4.30
2022-11-27T02:04:44.348Z,3.60
2022-11-27T02:06:58.657Z,3.40
2022-11-27T02:09:11.966Z,4.10
2022-11-27T02:11:32.173Z,3.10
2022-11-27T02:13:49.063Z,4.50
2022-11-27T02:16:11.764Z,4.90
2022-11-27T02:18:34.657Z,6.10
2022-11-27T02:20:54.385Z,6.10
2022-11-27T02:23:29.374Z,7.40
2022-11-27T02:25:55.752Z,8.80
2022-11-27T02:28:28.899Z,6.90
2022-11-27T02:30:48.557Z,5.50
2022-11-27T02:33:10.247Z,5.50
2022-11-27T02:35:29.307Z,8.70
2022-11-27T02:37:48.769Z,8.30
2022-11-27T02:40:11.626Z,9.10
2022-11-27T02:44:42.555Z,5.90
2022-11-27T02:46:56.709Z,6.00
2022-11-27T02:49:13.353Z,6.40
2022-11-27T02:51:32.363Z,4.80
2022-11-27T02:53:50.910Z,4.70
2022-11-27T02:56:06.484Z,4.10
2022-11-27T02:58:23.338Z,4.20
2022-11-27T03:00:39.380Z,3.60
2022-11-27T03:03:00.149Z,2.40
2022-11-27T03:05:18.501Z,2.40
2022-11-27T03:07:37.220Z,2.00
2022-11-27T03:09:54.611Z,1.90
2022-11-27T03:12:10.863Z,2.60
2022-11-27T03:14:26.125Z,3.20
2022-11-27T03:16:43.372Z,4.50
2022-11-27T03:19:07.227Z,4.90
2022-11-27T03:21:30.600Z,4.80
2022-11-27T03:23:44.341Z,5.10
2022-11-27T03:25:58.085Z,6.10
2022-11-27T03:28:14.122Z,4.10
2022-11-27T03:30:27.658Z,4.50
2022-11-27T03:32:41.428Z,2.90
2022-11-27T03:34:55.272Z,2.50
2022-11-27T03:37:08.873Z,3.20
2022-11-27T03:39:22.896Z,3.80
2022-11-27T03:41:44.375Z,5.10
2022-11-27T03:44:09.389Z,3.50
2022-11-27T03:46:27.833Z,3.00
2022-11-27T03:48:47.184Z,3.10
2022-11-27T03:51:11.306Z,4.70
2022-11-27T03:53:35.122Z,3.90
2022-11-27T03:55:55.863Z,8.50
2022-11-27T03:58:12.919Z,9.90
2022-11-27T04:00:27.215Z,9.00
2022-11-27T04:02:48.659Z,12.00
2022-11-27T04:05:02.070Z,8.00
2022-11-27T04:07:19.446Z,11.20
2022-11-27T04:09:32.642Z,11.90
2022-11-27T04:11:45.822Z,7.60
2022-11-27T04:13:59.150Z,9.20
2022-11-27T04:16:13.523Z,11.40
2022-11-27T04:18:26.824Z,9.00
2022-11-27T04:20:40.104Z,9.80
2022-11-27T04:22:53.719Z,10.20
2022-11-27T04:25:07.759Z,7.70
2022-11-27T04:27:21.317Z,6.10
2022-11-27T04:29:34.884Z,3.40
2022-11-27T04:31:48.384Z,3.00
2022-11-27T04:34:02.048Z,2.60
2022-11-27T04:36:15.644Z,2.20
2022-11-27T04:38:29.154Z,2.80
2022-11-27T04:40:42.536Z,2.50
2022-11-27T04:42:55.953Z,4.20
2022-11-27T04:45:10.238Z,2.40
2022-11-27T04:47:23.883Z,4.00
2022-11-27T04:49:37.315Z,2.60
2022-11-27T04:51:50.711Z,2.60
2022-11-27T04:54:04.386Z,2.90
2022-11-27T04:56:17.663Z,2.70
2022-11-27T04:58:31.083Z,5.60
2022-11-27T05:00:44.475Z,3.40
2022-11-27T05:02:57.733Z,2.50
2022-11-27T05:05:11.909Z,3.30
2022-11-27T05:07:25.333Z,2.10
2022-11-27T05:09:39.012Z,3.40
2022-11-27T05:11:52.428Z,3.60
2022-11-27T05:14:23.051Z,3.20
2022-11-27T05:16:36.798Z,2.60
2022-11-27T05:18:50.150Z,4.10
2022-11-27T05:21:08.223Z,2.40
2022-11-27T05:23:21.482Z,3.00
2022-11-27T05:25:37.529Z,2.90
2022-11-27T05:27:50.861Z,3.60
2022-11-27T05:30:04.393Z,3.20
2022-11-27T05:32:17.787Z,3.40
2022-11-27T05:34:31.312Z,2.90
2022-11-27T05:36:45.251Z,2.40
2022-11-27T05:38:58.707Z,2.20
2022-11-27T05:41:12.356Z,1.80
2022-11-27T05:43:25.887Z,2.60
2022-11-27T05:45:40.384Z,3.90
2022-11-27T05:47:53.715Z,3.00
2022-11-27T05:50:07.531Z,3.00
2022-11-27T05:52:21.188Z,2.90
2022-11-27T05:54:34.746Z,4.60
2022-11-27T05:56:48.240Z,3.10
2022-11-27T05:59:01.671Z,3.90
2022-11-27T06:01:16.334Z,2.90
2022-11-27T06:03:29.847Z,3.10
2022-11-27T06:05:44.918Z,2.70
2022-11-27T06:07:58.653Z,4.40
2022-11-27T06:10:13.374Z,6.10
2022-11-27T06:12:26.582Z,3.80
2022-11-27T06:14:40.612Z,10.20
2022-11-27T06:16:54.120Z,8.50
2022-11-27T06:19:07.699Z,7.20
2022-11-27T06:21:21.526Z,4.40
2022-11-27T06:23:34.848Z,2.60
2022-11-27T06:25:48.105Z,3.60
2022-11-27T06:28:01.637Z,3.50
2022-11-27T06:30:16.644Z,6.20
2022-11-27T06:32:30.275Z,5.70
2022-11-27T06:34:43.610Z,5.10
2022-11-27T06:36:56.826Z,6.50
2022-11-27T06:39:11.827Z,6.90
2022-11-27T06:41:28.259Z,5.60
2022-11-27T06:43:41.892Z,5.50
2022-11-27T06:46:03.711Z,4.80
2022-11-27T06:48:17.243Z,8.00
2022-11-27T06:50:30.597Z,7.00
2022-11-27T06:52:43.972Z,9.60
2022-11-27T06:54:57.452Z,8.10
2022-11-27T06:57:10.833Z,3.50
2022-11-27T06:59:24.923Z,6.00
2022-11-27T07:01:38.441Z,6.40
2022-11-27T07:03:51.793Z,5.40
2022-11-27T07:06:09.541Z,3.70
2022-11-27T07:08:23.407Z,3.50
2022-11-27T07:10:39.679Z,3.70
2022-11-27T07:12:53.268Z,4.50
2022-11-27T07:15:06.775Z,5.20
2022-11-27T07:17:20.159Z,5.50
2022-11-27T07:19:33.705Z,7.30
2022-11-27T07:21:47.661Z,4.60
2022-11-27T07:24:01.510Z,6.80
2022-11-27T07:26:17.483Z,6.80
2022-11-27T07:28:33.672Z,8.10
2022-11-27T07:30:47.108Z,7.00
2022-11-27T07:33:00.296Z,8.40
2022-11-27T07:35:14.301Z,6.90
2022-11-27T07:37:27.553Z,5.20
2022-11-27T07:40:01.265Z,8.40
2022-11-27T07:44:47.363Z,6.00
2022-11-27T07:47:00.814Z,6.70
2022-11-27T07:49:14.069Z,3.70
2022-11-27T07:51:27.770Z,6.70
2022-11-27T07:53:41.865Z,9.90
2022-11-27T07:55:55.227Z,7.00
2022-11-27T07:58:08.554Z,8.40
2022-11-27T08:00:24.504Z,10.60
2022-11-27T08:02:38.440Z,7.90
2022-11-27T08:04:51.928Z,7.70
2022-11-27T08:07:05.223Z,5.60
2022-11-27T08:09:18.510Z,5.70
2022-11-27T08:11:34.107Z,5.00
2022-11-27T08:13:47.578Z,3.50
2022-11-27T08:16:02.390Z,3.10
2022-11-27T08:18:15.762Z,5.70
2022-11-27T08:20:29.583Z,6.00
2022-11-27T08:22:42.795Z,6.60
2022-11-27T08:24:56.229Z,7.70
2022-11-27T08:27:09.485Z,7.30
2022-11-27T08:29:22.682Z,6.00
2022-11-27T08:31:36.294Z,6.20
2022-11-27T08:33:49.505Z,6.60
2022-11-27T08:36:02.703Z,6.40
2022-11-27T08:38:15.960Z,4.40
2022-11-27T08:40:30.043Z,4.70
2022-11-27T08:42:43.270Z,4.80
2022-11-27T08:44:56.611Z,6.70
2022-11-27T08:47:09.955Z,6.70
2022-11-27T08:49:23.262Z,6.40
2022-11-27T08:51:37.207Z,5.00
2022-11-27T08:53:50.591Z,4.60
2022-11-27T08:56:12.039Z,5.80
2022-11-27T08:58:25.478Z,5.30
2022-11-27T09:00:39.647Z,4.20
2022-11-27T09:02:53.046Z,4.10
2022-11-27T09:05:08.068Z,5.80
2022-11-27T09:07:23.370Z,4.90
2022-11-27T09:09:37.114Z,3.30
2022-11-27T09:11:50.796Z,2.90
2022-11-27T09:14:06.270Z,4.80
2022-11-27T09:16:21.257Z,5.30
2022-11-27T09:18:34.770Z,3.00
2022-11-27T09:20:48.146Z,2.80
2022-11-27T09:23:03.624Z,4.20
2022-11-27T09:25:17.203Z,5.00
2022-11-27T09:27:30.548Z,4.70
2022-11-27T09:29:43.928Z,4.40
2022-11-27T09:31:57.063Z,3.40
2022-11-27T09:34:10.395Z,5.20
2022-11-27T09:36:25.472Z,6.60
2022-11-27T09:38:39.039Z,4.30
2022-11-27T09:41:00.425Z,4.20
2022-11-27T09:43:19.654Z,1.90
2022-11-27T09:45:34.056Z,2.20
2022-11-27T09:47:50.191Z,4.80
2022-11-27T09:50:05.456Z,5.20
2022-11-27T09:52:25.958Z,3.00
2022-11-27T09:54:48.053Z,3.60
2022-11-27T09:57:04.751Z,3.00
2022-11-27T09:59:21.972Z,3.20
2022-11-27T10:01:45.264Z,5.80
2022-11-27T10:04:04.221Z,10.40
2022-11-27T10:06:29.383Z,6.80
2022-11-27T10:08:49.226Z,8.00
2022-11-27T10:11:17.222Z,6.70
2022-11-27T10:13:49.570Z,2.60
2022-11-27T10:16:07.723Z,3.00
2022-11-27T10:18:27.447Z,4.30
2022-11-27T10:20:48.014Z,3.70
2022-11-27T10:23:08.024Z,4.00
2022-11-27T10:25:24.341Z,4.70
2022-11-27T10:27:42.624Z,5.90
2022-11-27T10:29:58.772Z,4.60
2022-11-27T10:32:47.274Z,4.50
2022-11-27T10:34:56.051Z,4.70
2022-11-27T10:37:17.487Z,3.40
2022-11-27T10:39:37.422Z,3.90
2022-11-27T10:41:56.579Z,3.60
2022-11-27T10:44:26.782Z,3.30
2022-11-27T10:46:44.712Z,3.50
2022-11-27T10:48:58.155Z,3.90
2022-11-27T10:51:20.076Z,2.80
2022-11-27T10:53:36.035Z,5.40
2022-11-27T10:56:02.086Z,6.10
2022-11-27T10:58:27.056Z,8.30
2022-11-27T11:00:40.367Z,9.40
2022-11-27T11:03:02.754Z,6.60
2022-11-27T11:05:45.023Z,7.60
2022-11-27T11:08:08.188Z,7.20
2022-11-27T11:10:32.399Z,5.70
2022-11-27T11:12:45.822Z,6.20
2022-11-27T11:15:00.839Z,5.70
2022-11-27T11:17:27.891Z,5.50
2022-11-27T11:19:41.776Z,6.00
2022-11-27T11:21:55.307Z,4.20
2022-11-27T11:24:11.036Z,4.70
2022-11-27T11:26:36.114Z,5.80
2022-11-27T11:28:56.649Z,4.20
2022-11-27T11:31:13.615Z,2.80
2022-11-27T11:33:26.970Z,4.60
2022-11-27T11:35:40.965Z,2.70
2022-11-27T11:37:55.056Z,4.00
2022-11-27T11:40:14.891Z,2.70
2022-11-27T11:42:31.140Z,5.90
2022-11-27T11:44:53.040Z,5.90
2022-11-27T11:47:06.248Z,5.10
2022-11-27T11:49:26.975Z,5.50
2022-11-27T11:52:06.470Z,6.60
2022-11-27T11:54:36.711Z,5.60
2022-11-27T11:56:53.789Z,4.50
2022-11-27T11:59:10.684Z,7.10
2022-11-27T12:01:41.905Z,6.30
2022-11-27T12:04:12.235Z,8.10
2022-11-27T12:06:41.547Z,6.30
2022-11-27T12:09:04.371Z,8.80
2022-11-27T12:11:22.919Z,9.90
2022-11-27T12:13:50.578Z,9.40
2022-11-27T12:16:08.651Z,7.30
2022-11-27T12:18:27.494Z,8.80
2022-11-27T12:21:02.099Z,6.70
2022-11-27T12:23:42.532Z,9.20
2022-11-27T12:26:06.368Z,9.20
2022-11-27T12:28:35.458Z,12.00
2022-11-27T12:30:55.658Z,11.90
2022-11-27T12:33:36.242Z,7.40
2022-11-27T12:36:00.945Z,4.50
2022-11-27T12:38:30.671Z,6.10
2022-11-27T12:41:03.846Z,3.80
2022-11-27T12:43:24.392Z,4.80
2022-11-27T12:45:42.414Z,5.60
2022-11-27T12:47:59.987Z,5.80
2022-11-27T12:50:19.319Z,6.70
2022-11-27T12:52:39.150Z,4.30
2022-11-27T12:54:58.178Z,5.90
2022-11-27T12:57:17.204Z,9.40
2022-11-27T12:59:34.881Z,9.20
2022-11-27T13:01:55.048Z,4.00
2022-11-27T13:04:17.956Z,5.60
2022-11-27T13:08:52.628Z,4.00
2022-11-27T13:11:11.287Z,3.60
2022-11-27T13:13:31.467Z,3.30
2022-11-27T13:15:51.224Z,3.80
2022-11-27T13:18:15.502Z,4.70
2022-11-27T13:20:35.801Z,3.30
2022-11-27T13:22:51.147Z,6.00
2022-11-27T13:25:07.177Z,4.70
2022-11-27T13:27:24.855Z,5.30
2022-11-27T13:29:42.981Z,6.00
2022-11-27T13:32:02.188Z,3.70
2022-11-27T13:34:24.911Z,1.60
2022-11-27T13:36:43.034Z,1.30
2022-11-27T13:39:03.368Z,0.90
2022-11-27T13:41:27.519Z,1.40
2022-11-27T13:43:48.100Z,2.40
2022-11-27T13:46:08.228Z,3.30
2022-11-27T13:48:36.349Z,3.60
2022-11-27T13:50:52.350Z,3.50
2022-11-27T13:53:08.586Z,3.60
2022-11-27T13:55:31.502Z,4.50
2022-11-27T13:57:55.043Z,4.00
2022-11-27T14:00:10.428Z,5.40
2022-11-27T14:02:26.301Z,5.80
2022-11-27T14:04:55.881Z,6.60
2022-11-27T14:07:12.904Z,6.30
2022-11-27T14:09:35.236Z,5.00
2022-11-27T14:11:52.045Z,5.00
2022-11-27T14:14:06.733Z,5.10
2022-11-27T14:16:31.440Z,5.20
2022-11-27T14:18:53.047Z,2.70
2022-11-27T14:21:07.956Z,3.40
2022-11-27T14:23:35.089Z,2.20
2022-11-27T14:25:48.424Z,3.70
2022-11-27T14:28:19.021Z,8.50
2022-11-27T14:30:36.318Z,2.80
2022-11-27T14:32:51.691Z,3.90
2022-11-27T14:35:04.973Z,4.00
2022-11-27T14:37:29.619Z,5.30
2022-11-27T14:39:43.957Z,3.10
2022-11-27T14:42:05.642Z,4.90
2022-11-27T14:44:22.246Z,4.30
2022-11-27T14:46:38.916Z,6.90
2022-11-27T14:48:53.483Z,4.80
2022-11-27T14:51:07.004Z,2.80
2022-11-27T14:53:21.720Z,2.60
2022-11-27T14:55:35.376Z,2.90
2022-11-27T14:57:50.382Z,3.10
2022-11-27T15:00:28.372Z,5.50
2022-11-27T15:02:41.873Z,5.80
2022-11-27T15:05:04.976Z,4.10
2022-11-27T15:07:22.163Z,4.60
2022-11-27T15:09:38.321Z,6.20
2022-11-27T15:11:56.842Z,7.40
2022-11-27T15:14:10.208Z,6.00
2022-11-27T15:16:27.756Z,6.90
2022-11-27T15:18:42.253Z,3.60
2022-11-27T15:20:56.166Z,7.70
2022-11-27T15:23:17.659Z,5.00
2022-11-27T15:25:42.645Z,5.40
2022-11-27T15:27:56.013Z,3.70
2022-11-27T15:30:17.703Z,4.60
2022-11-27T15:32:38.230Z,5.60
2022-11-27T15:34:51.367Z,7.60
2022-11-27T15:37:07.890Z,9.10
2022-11-27T15:39:40.038Z,5.80
2022-11-27T15:42:04.270Z,4.80
2022-11-27T15:44:17.806Z,5.00
2022-11-27T15:46:35.632Z,6.70
2022-11-27T15:48:48.943Z,6.10
2022-11-27T15:51:02.130Z,6.90
2022-11-27T15:53:15.319Z,10.10
2022-11-27T15:55:29.054Z,8.30
2022-11-27T15:57:42.670Z,7.60
2022-11-27T15:59:55.952Z,5.20
2022-11-27T16:02:13.187Z,4.60
2022-11-27T16:04:32.160Z,8.20
2022-11-27T16:06:45.499Z,7.50
2022-11-27T16:09:02.597Z,5.20
2022-11-27T16:11:20.685Z,5.70
2022-11-27T16:13:34.998Z,8.00
2022-11-27T16:15:48.466Z,6.20
2022-11-27T16:18:03.211Z,7.10
2022-11-27T16:20:17.864Z,6.30
2022-11-27T16:22:31.338Z,6.50
2022-11-27T16:24:44.922Z,7.00
2022-11-27T16:26:58.558Z,5.50
2022-11-27T16:29:12.513Z,12.30
2022-11-27T16:31:26.275Z,5.30
2022-11-27T16:33:39.756Z,4.40
2022-11-27T16:35:53.693Z,7.00
2022-11-27T16:38:07.256Z,7.80
2022-11-27T16:40:20.760Z,6.30
2022-11-27T16:42:34.917Z,4.90
2022-11-27T16:44:49.198Z,4.10
2022-11-27T16:47:02.825Z,7.30
2022-11-27T16:49:17.195Z,5.60
2022-11-27T16:51:33.504Z,6.60
2022-11-27T16:53:48.454Z,6.20
2022-11-27T16:56:02.016Z,4.50
2022-11-27T16:58:15.337Z,7.00
2022-11-27T17:00:29.224Z,6.60
2022-11-27T17:02:42.568Z,6.50
2022-11-27T17:04:56.010Z,6.90
2022-11-27T17:07:09.410Z,6.50
2022-11-27T17:09:25.869Z,5.30
2022-11-27T17:11:41.451Z,4.70
2022-11-27T17:13:56.047Z,6.60
2022-11-27T17:16:11.086Z,5.30
2022-11-27T17:18:24.665Z,6.10
2022-11-27T17:20:38.787Z,5.90
2022-11-27T17:22:53.813Z,5.10
2022-11-27T17:25:07.858Z,5.10
2022-11-27T17:27:22.350Z,6.30
2022-11-27T17:29:37.268Z,5.50
2022-11-27T17:31:51.058Z,7.20
2022-11-27T17:34:04.794Z,7.60
2022-11-27T17:36:19.985Z,4.50
2022-11-27T17:38:36.998Z,6.10
2022-11-27T17:40:53.028Z,6.60
2022-11-27T17:43:06.279Z,6.80
2022-11-27T17:45:19.801Z,5.10
2022-11-27T17:47:33.265Z,6.50
2022-11-27T17:49:46.382Z,6.40
2022-11-27T17:52:04.833Z,5.00
2022-11-27T17:54:21.241Z,6.50
2022-11-27T17:56:35.890Z,6.10
2022-11-27T17:58:49.408Z,6.60
2022-11-27T18:01:03.296Z,5.30
2022-11-27T18:03:17.989Z,5.60
2022-11-27T18:05:31.442Z,6.60
2022-11-27T18:07:45.242Z,6.40
2022-11-27T18:09:59.339Z,4.90
2022-11-27T18:12:13.556Z,4.70
2022-11-27T18:14:27.065Z,3.90
2022-11-27T18:16:42.453Z,4.60
2022-11-27T18:18:55.846Z,2.50
2022-11-27T18:21:18.036Z,1.70
2022-11-27T18:23:33.043Z,1.70
2022-11-27T18:25:49.193Z,2.30
2022-11-27T18:28:04.516Z,1.90
2022-11-27T18:30:19.202Z,1.50
2022-11-27T18:32:32.620Z,1.80
2022-11-27T18:34:46.082Z,1.20
2022-11-27T18:37:00.713Z,2.90
2022-11-27T18:39:13.978Z,1.50
2022-11-27T18:41:29.393Z,1.70
2022-11-27T18:43:45.224Z,1.60
2022-11-27T18:45:58.826Z,1.40
2022-11-27T18:48:12.760Z,1.80
2022-11-27T18:50:29.592Z,3.00
2022-11-27T18:52:43.414Z,2.30
2022-11-27T18:54:56.943Z,1.30
2022-11-27T18:57:12.405Z,1.70
2022-11-27T18:59:26.099Z,1.60
2022-11-27T19:01:42.532Z,1.20
2022-11-27T19:03:56.634Z,1.40
2022-11-27T19:06:11.542Z,1.30
2022-11-27T19:08:24.751Z,2.10
2022-11-27T19:10:38.769Z,2.20
2022-11-27T19:12:52.164Z,1.60
2022-11-27T19:15:05.713Z,1.80
2022-11-27T19:17:19.854Z,1.80
2022-11-27T19:19:53.897Z,2.00
2022-11-27T19:22:08.322Z,5.00
2022-11-27T19:24:22.167Z,6.50
2022-11-27T19:26:40.399Z,5.00
2022-11-27T19:28:58.595Z,5.00
2022-11-27T19:31:14.663Z,3.50
2022-11-27T19:33:28.211Z,2.90
2022-11-27T19:35:41.875Z,3.50
2022-11-27T19:37:55.259Z,3.00
2022-11-27T19:40:10.264Z,2.70
2022-11-27T19:42:23.590Z,2.00
2022-11-27T19:44:36.661Z,2.40
2022-11-27T19:46:49.903Z,1.60
2022-11-27T19:49:05.694Z,1.90
2022-11-27T19:51:19.607Z,3.00
2022-11-27T19:53:33.196Z,3.00
2022-11-27T19:55:46.575Z,2.80
2022-11-27T19:57:59.790Z,2.90
2022-11-27T20:00:15.934Z,2.20
2022-11-27T20:02:31.290Z,2.50
2022-11-27T20:04:44.773Z,2.50
2022-11-27T20:06:58.925Z,2.50
2022-11-27T20:09:12.729Z,2.60
2022-11-27T20:11:33.933Z,2.70
2022-11-27T20:13:48.379Z,1.70
2022-11-27T20:16:02.860Z,2.80
2022-11-27T20:18:16.932Z,2.40
2022-11-27T20:20:33.981Z,2.20
2022-11-27T20:22:47.677Z,3.40
2022-11-27T20:25:20.764Z,2.30
2022-11-27T20:27:34.249Z,2.70
2022-11-27T20:29:47.566Z,2.80
2022-11-27T20:32:00.855Z,3.00
2022-11-27T20:34:18.674Z,4.20
2022-11-27T20:36:33.964Z,11.10
2022-11-27T20:38:47.939Z,5.70
2022-11-27T20:41:01.359Z,4.50
2022-11-27T20:43:15.235Z,3.80
2022-11-27T20:45:29.160Z,3.10
2022-11-27T20:47:42.944Z,3.80
2022-11-27T20:49:56.362Z,3.90
2022-11-27T20:52:11.441Z,5.00
2022-11-27T20:54:25.213Z,4.60
2022-11-27T20:56:39.374Z,3.30
2022-11-27T20:58:53.518Z,2.30
2022-11-27T21:01:16.065Z,4.10
2022-11-27T21:03:29.534Z,4.50
2022-11-27T21:05:47.821Z,4.40
2022-11-27T21:08:01.852Z,8.00
2022-11-27T21:10:17.901Z,5.70
2022-11-27T21:12:31.463Z,6.20
2022-11-27T21:14:46.935Z,6.70
2022-11-27T21:17:04.826Z,4.10
2022-11-27T21:19:22.521Z,4.30
2022-11-27T21:21:36.505Z,4.10
2022-11-27T21:23:50.009Z,6.10
2022-11-27T21:26:03.718Z,6.40
2022-11-27T21:28:17.110Z,8.90
2022-11-27T21:30:30.552Z,10.90
2022-11-27T21:32:43.720Z,7.90
2022-11-27T21:34:56.985Z,8.10
2022-11-27T21:37:10.247Z,10.80
2022-11-27T21:39:23.677Z,2.30
2022-11-27T21:41:38.248Z,4.90
2022-11-27T21:43:52.248Z,2.20
2022-11-27T21:46:11.661Z,6.20
2022-11-27T21:48:25.182Z,3.90
2022-11-27T21:50:38.754Z,4.40
2022-11-27T21:52:52.258Z,5.60
2022-11-27T21:55:11.619Z,4.30
2022-11-27T21:57:25.359Z,6.50
2022-11-27T21:59:38.540Z,4.50
2022-11-27T22:01:52.525Z,4.50
2022-11-27T22:04:06.195Z,7.80
2022-11-27T22:06:21.059Z,4.10
2022-11-27T22:08:33.473Z,4.40
2022-11-27T22:10:47.790Z,4.60
2022-11-27T22:13:00.996Z,5.80
2022-11-27T22:15:16.824Z,6.80
2022-11-27T22:17:30.077Z,4.20
2022-11-27T22:19:43.646Z,4.80
2022-11-27T22:21:56.972Z,3.30
2022-11-27T22:24:15.052Z,4.60
2022-11-27T22:26:32.161Z,3.20
2022-11-27T22:28:45.542Z,2.50
2022-11-27T22:30:59.040Z,6.60
2022-11-27T22:33:12.393Z,5.90
2022-11-27T22:35:26.126Z,3.70
2022-11-27T22:37:39.495Z,2.70
2022-11-27T22:39:52.940Z,3.10
2022-11-27T22:42:06.200Z,3.20
2022-11-27T22:44:24.163Z,3.10
2022-11-27T22:46:38.588Z,5.00
2022-11-27T22:48:57.340Z,3.50
2022-11-27T22:51:11.587Z,4.30
2022-11-27T22:53:25.386Z,4.10
2022-11-27T22:55:41.151Z,4.50
2022-11-27T22:57:54.468Z,4.00
2022-11-27T23:00:10.675Z,4.10
2022-11-27T23:02:24.071Z,4.00
2022-11-27T23:04:37.596Z,2.10
2022-11-27T23:06:51.106Z,1.70
2022-11-27T23:09:04.319Z,4.50
2022-11-27T23:11:20.541Z,4.40
2022-11-27T23:13:33.935Z,7.50
2022-11-27T23:15:47.874Z,3.70
2022-11-27T23:18:02.751Z,4.40
2022-11-27T23:20:18.146Z,5.10
2022-11-27T23:22:31.487Z,4.20
2022-11-27T23:24:44.990Z,3.50
2022-11-27T23:26:58.794Z,4.10
2022-11-27T23:29:12.494Z,5.30
2022-11-27T23:31:31.134Z,3.60
2022-11-27T23:33:45.962Z,4.60
2022-11-27T23:36:06.118Z,6.30
2022-11-27T23:38:19.418Z,4.80
2022-11-27T23:40:32.701Z,6.10
2022-11-27T23:42:46.000Z,6.60
2022-11-27T23:44:59.147Z,7.20
2022-11-27T23:47:12.519Z,5.00
2022-11-27T23:49:25.802Z,4.00
2022-11-27T23:51:39.719Z,3.70
2022-11-27T23:53:53.566Z,5.80
2022-11-27T23:56:11.603Z,5.40
2022-11-27T23:58:24.937Z,4.70
